createdAt,value
2018-06-11T00:00:10.406Z,8.40
2018-06-11T00:02:13.220Z,9.00
2018-06-11T00:04:15.889Z,8.80
2018-06-11T00:06:19.145Z,8.80
2018-06-11T00:08:21.783Z,8.87
2018-06-11T00:10:24.310Z,8.43
2018-06-11T00:12:26.900Z,8.30
2018-06-11T00:14:29.877Z,8.10
2018-06-11T00:16:32.555Z,8.70
2018-06-11T00:18:35.098Z,8.77
2018-06-11T00:20:37.757Z,7.00
2018-06-11T00:22:41.069Z,8.60
2018-06-11T00:24:43.685Z,7.80
2018-06-11T00:26:46.350Z,8.10
2018-06-11T00:28:48.913Z,8.97
2018-06-11T00:30:51.461Z,8.80
2018-06-11T00:32:54.173Z,9.80
2018-06-11T00:34:56.729Z,8.37
2018-06-11T00:36:59.309Z,9.53
2018-06-11T00:39:01.886Z,8.43
2018-06-11T00:41:04.443Z,8.30
2018-06-11T00:43:07.033Z,8.53
2018-06-11T00:45:09.811Z,8.40
2018-06-11T00:47:12.353Z,8.20
2018-06-11T00:49:14.973Z,7.87
2018-06-11T00:51:17.577Z,8.07
2018-06-11T00:53:20.109Z,8.90
2018-06-11T00:55:22.681Z,7.80
2018-06-11T00:57:25.657Z,7.87
2018-06-11T00:59:28.204Z,8.97
2018-06-11T01:01:30.764Z,8.23
2018-06-11T01:03:34.193Z,8.87
2018-06-11T01:05:36.777Z,7.30
2018-06-11T01:07:39.341Z,8.20
2018-06-11T01:09:42.321Z,8.37
2018-06-11T01:11:45.741Z,9.27
2018-06-11T01:13:48.290Z,8.10
2018-06-11T01:15:50.864Z,8.73
2018-06-11T01:17:53.413Z,7.60
2018-06-11T01:19:55.966Z,9.23
2018-06-11T01:21:59.981Z,9.30
2018-06-11T01:24:02.636Z,8.57
2018-06-11T01:26:05.156Z,9.67
2018-06-11T01:28:08.162Z,8.40
2018-06-11T01:30:10.704Z,8.60
2018-06-11T01:32:13.292Z,9.00
2018-06-11T01:34:15.979Z,8.73
2018-06-11T01:36:18.545Z,9.17
2018-06-11T01:38:21.107Z,9.33
2018-06-11T01:40:23.694Z,9.00
2018-06-11T01:42:26.241Z,10.30
2018-06-11T01:44:28.790Z,10.03
2018-06-11T01:46:32.128Z,8.30
2018-06-11T01:48:34.692Z,9.00
2018-06-11T01:50:37.272Z,9.47
2018-06-11T01:52:39.852Z,11.27
2018-06-11T01:54:42.428Z,8.93
2018-06-11T01:56:45.036Z,9.07
2018-06-11T01:58:47.677Z,8.60
2018-06-11T02:00:50.228Z,9.30
2018-06-11T02:02:52.820Z,9.50
2018-06-11T02:04:55.394Z,9.80
2018-06-11T02:06:57.952Z,9.87
2018-06-11T02:09:00.661Z,10.37
2018-06-11T02:11:03.233Z,9.67
2018-06-11T02:13:05.801Z,9.40
2018-06-11T02:15:08.346Z,9.63
2018-06-11T02:17:10.944Z,10.20
2018-06-11T02:19:13.488Z,9.83
2018-06-11T02:21:16.038Z,8.90
2018-06-11T02:23:19.495Z,11.03
2018-06-11T02:25:22.044Z,10.23
2018-06-11T02:27:24.625Z,8.70
2018-06-11T02:29:27.190Z,11.10
2018-06-11T02:31:29.745Z,10.10
2018-06-11T02:33:32.385Z,10.30
2018-06-11T02:35:35.062Z,10.97
2018-06-11T02:37:39.134Z,12.03
2018-06-11T02:39:41.688Z,10.53
2018-06-11T02:41:44.276Z,10.33
2018-06-11T02:43:46.953Z,10.87
2018-06-11T02:45:49.524Z,10.07
2018-06-11T02:47:52.313Z,10.80
2018-06-11T02:49:54.872Z,9.40
2018-06-11T02:51:57.453Z,10.40
2018-06-11T02:54:00.128Z,11.17
2018-06-11T02:56:02.741Z,10.50
2018-06-11T02:58:05.272Z,11.30
2018-06-11T03:00:08.255Z,9.87
2018-06-11T03:02:10.937Z,10.23
2018-06-11T03:04:13.490Z,11.27
2018-06-11T03:06:16.064Z,10.47
2018-06-11T03:08:18.656Z,10.50
2018-06-11T03:10:21.331Z,11.03
2018-06-11T03:12:24.312Z,10.83
2018-06-11T03:14:26.892Z,10.27
2018-06-11T03:16:29.476Z,10.53
2018-06-11T03:18:32.171Z,10.00
2018-06-11T03:20:34.709Z,11.33
2018-06-11T03:22:37.277Z,10.57
2018-06-11T03:24:39.955Z,11.13
2018-06-11T03:26:42.640Z,11.00
2018-06-11T03:28:45.204Z,10.87
2018-06-11T03:30:47.901Z,9.60
2018-06-11T03:32:50.549Z,9.67
2018-06-11T03:34:53.104Z,11.00
2018-06-11T03:36:55.813Z,10.50
2018-06-11T03:38:58.373Z,11.70
2018-06-11T03:41:00.953Z,10.70
2018-06-11T03:43:03.528Z,10.57
2018-06-11T03:45:06.100Z,10.90
2018-06-11T03:47:08.661Z,10.53
2018-06-11T03:49:11.244Z,10.50
2018-06-11T03:51:13.792Z,10.57
2018-06-11T03:53:16.337Z,10.23
2018-06-11T03:55:19.790Z,11.73
2018-06-11T03:57:22.368Z,11.30
2018-06-11T03:59:24.935Z,10.23
2018-06-11T04:01:27.507Z,10.50
2018-06-11T04:03:30.080Z,11.27
2018-06-11T04:05:32.684Z,10.80
2018-06-11T04:07:35.429Z,10.20
2018-06-11T04:09:38.098Z,11.07
2018-06-11T04:11:40.657Z,11.37
2018-06-11T04:13:43.362Z,11.50
2018-06-11T04:15:45.938Z,12.30
2018-06-11T04:17:48.495Z,12.17
2018-06-11T04:19:51.070Z,12.20
2018-06-11T04:21:53.628Z,12.50
2018-06-11T04:23:56.230Z,12.80
2018-06-11T04:25:58.812Z,11.47
2018-06-11T04:28:01.365Z,12.60
2018-06-11T04:30:03.940Z,12.00
2018-06-11T04:32:06.924Z,12.93
2018-06-11T04:34:09.473Z,11.53
2018-06-11T04:36:12.050Z,11.93
2018-06-11T04:38:15.881Z,13.10
2018-06-11T04:40:18.473Z,11.20
2018-06-11T04:42:21.036Z,12.07
2018-06-11T04:44:23.612Z,11.73
2018-06-11T04:46:26.170Z,11.40
2018-06-11T04:48:28.732Z,11.40
2018-06-11T04:50:31.297Z,12.73
2018-06-11T04:52:33.889Z,11.70
2018-06-11T04:54:36.440Z,12.80
2018-06-11T04:56:39.038Z,11.87
2018-06-11T04:58:41.608Z,11.60
2018-06-11T05:00:44.204Z,11.73
2018-06-11T05:02:46.860Z,11.40
2018-06-11T05:04:49.436Z,12.27
2018-06-11T05:06:52.032Z,11.70
2018-06-11T05:08:54.596Z,11.83
2018-06-11T05:10:57.146Z,11.53
2018-06-11T05:12:59.693Z,12.40
2018-06-11T05:15:02.302Z,10.93
2018-06-11T05:17:04.876Z,12.43
2018-06-11T05:19:07.432Z,12.13
2018-06-11T05:21:10.424Z,11.40
2018-06-11T05:23:12.972Z,12.03
2018-06-11T05:25:15.578Z,12.30
2018-06-11T05:27:18.168Z,12.70
2018-06-11T05:29:20.720Z,13.00
2018-06-11T05:31:23.368Z,12.30
2018-06-11T05:33:26.379Z,13.93
2018-06-11T05:35:28.927Z,13.10
2018-06-11T05:37:31.508Z,12.30
2018-06-11T05:39:34.085Z,11.03
2018-06-11T05:41:36.633Z,12.77
2018-06-11T05:43:39.191Z,12.60
2018-06-11T05:45:42.948Z,11.47
2018-06-11T05:47:45.498Z,11.40
2018-06-11T05:49:48.049Z,11.17
2018-06-11T05:51:51.388Z,12.13
2018-06-11T05:53:53.936Z,11.27
2018-06-11T05:55:56.501Z,10.50
2018-06-11T05:58:00.285Z,11.30
2018-06-11T06:00:02.947Z,11.43
2018-06-11T06:02:05.464Z,11.10
2018-06-11T06:04:08.065Z,11.70
2018-06-11T06:06:10.616Z,10.70
2018-06-11T06:08:13.167Z,11.93
2018-06-11T06:10:15.740Z,12.10
2018-06-11T06:12:18.289Z,10.63
2018-06-11T06:14:21.611Z,10.53
2018-06-11T06:16:24.622Z,12.00
2018-06-11T06:18:27.169Z,10.80
2018-06-11T06:20:29.758Z,10.00
2018-06-11T06:22:32.347Z,10.00
2018-06-11T06:24:34.922Z,10.18
2018-06-11T06:26:37.483Z,9.80
2018-06-11T06:28:40.473Z,10.83
2018-06-11T06:30:43.012Z,10.37
2018-06-11T06:32:45.561Z,10.10
2018-06-11T06:34:49.029Z,11.27
2018-06-11T06:36:51.469Z,9.77
2018-06-11T06:38:54.021Z,10.13
2018-06-11T06:40:56.587Z,11.30
2018-06-11T06:42:59.179Z,9.17
2018-06-11T06:45:02.469Z,10.67
2018-06-11T06:47:05.053Z,10.90
2018-06-11T06:49:07.607Z,10.90
2018-06-11T06:51:10.154Z,8.97
2018-06-11T06:53:13.912Z,11.37
2018-06-11T06:55:16.456Z,11.40
2018-06-11T06:57:19.061Z,11.20
2018-06-11T06:59:21.628Z,13.40
2018-06-11T07:01:24.198Z,11.67
2018-06-11T07:03:26.750Z,11.73
2018-06-11T07:05:29.358Z,11.47
2018-06-11T07:07:31.906Z,10.80
2018-06-11T07:09:34.456Z,10.23
2018-06-11T07:11:38.110Z,12.30
2018-06-11T07:13:40.902Z,11.30
2018-06-11T07:15:43.462Z,11.30
2018-06-11T07:17:46.024Z,11.63
2018-06-11T07:19:48.573Z,12.90
2018-06-11T07:21:51.174Z,11.40
2018-06-11T07:23:53.752Z,11.53
2018-06-11T07:25:56.317Z,11.67
2018-06-11T07:27:58.896Z,11.17
2018-06-11T07:30:01.563Z,10.77
2018-06-11T07:32:04.242Z,11.10
2018-06-11T07:34:06.808Z,10.47
2018-06-11T07:36:09.484Z,10.67
2018-06-11T07:38:12.076Z,10.83
2018-06-11T07:40:14.638Z,11.10
2018-06-11T07:42:17.308Z,10.27
2018-06-11T07:44:19.980Z,12.07
2018-06-11T07:46:22.538Z,12.20
2018-06-11T07:48:25.105Z,10.33
2018-06-11T07:50:27.652Z,11.00
2018-06-11T07:52:31.121Z,11.53
2018-06-11T07:54:34.081Z,10.37
2018-06-11T07:56:36.823Z,11.13
2018-06-11T07:58:40.151Z,10.53
2018-06-11T08:00:43.540Z,10.30
2018-06-11T08:02:46.110Z,10.53
2018-06-11T08:04:48.661Z,11.27
2018-06-11T08:06:51.269Z,10.70
2018-06-11T08:08:53.980Z,11.13
2018-06-11T08:10:56.565Z,10.60
2018-06-11T08:12:59.912Z,10.67
2018-06-11T08:15:02.493Z,10.63
2018-06-11T08:17:05.036Z,11.37
2018-06-11T08:19:07.612Z,10.43
2018-06-11T08:21:10.173Z,11.70
2018-06-11T08:23:12.788Z,11.07
2018-06-11T08:25:16.002Z,9.90
2018-06-11T08:27:18.638Z,10.73
2018-06-11T08:29:21.196Z,10.97
2018-06-11T08:31:23.786Z,10.67
2018-06-11T08:33:26.340Z,10.07
2018-06-11T08:35:28.881Z,9.83
2018-06-11T08:37:32.220Z,10.17
2018-06-11T08:39:34.776Z,10.73
2018-06-11T08:41:37.391Z,10.47
2018-06-11T08:43:39.980Z,11.10
2018-06-11T08:45:42.509Z,10.93
2018-06-11T08:47:45.060Z,9.67
2018-06-11T08:49:47.666Z,11.17
2018-06-11T08:51:51.048Z,10.20
2018-06-11T08:53:53.605Z,10.07
2018-06-11T08:55:56.281Z,11.60
2018-06-11T08:57:58.876Z,11.00
2018-06-11T09:00:01.476Z,10.10
2018-06-11T09:02:04.025Z,10.70
2018-06-11T09:04:06.569Z,9.80
2018-06-11T09:06:09.124Z,10.00
2018-06-11T09:08:12.489Z,10.63
2018-06-11T09:10:15.010Z,10.20
2018-06-11T09:12:17.556Z,9.60
2018-06-11T09:14:20.993Z,11.50
2018-06-11T09:16:23.545Z,10.37
2018-06-11T09:18:26.166Z,9.83
2018-06-11T09:20:29.844Z,9.80
2018-06-11T09:22:32.393Z,9.07
2018-06-11T09:24:34.949Z,10.20
2018-06-11T09:26:38.397Z,9.20
2018-06-11T09:28:40.972Z,10.07
2018-06-11T09:30:43.538Z,9.97
2018-06-11T09:32:46.105Z,9.27
2018-06-11T09:34:48.701Z,8.40
2018-06-11T09:36:51.237Z,9.77
2018-06-11T09:38:53.800Z,9.20
2018-06-11T09:40:56.358Z,9.67
2018-06-11T09:42:58.960Z,9.20
2018-06-11T09:45:01.633Z,10.47
2018-06-11T09:47:04.262Z,8.90
2018-06-11T09:49:06.816Z,8.47
2018-06-11T09:51:09.361Z,9.40
2018-06-11T09:53:11.916Z,9.43
2018-06-11T09:55:14.472Z,8.90
2018-06-11T09:57:17.803Z,9.70
2018-06-11T09:59:20.352Z,10.80
2018-06-11T10:01:22.896Z,9.77
2018-06-11T10:03:26.248Z,10.90
2018-06-11T10:05:28.827Z,9.73
2018-06-11T10:07:31.389Z,11.10
2018-06-11T10:09:34.076Z,10.10
2018-06-11T10:11:36.640Z,10.83
2018-06-11T10:13:39.220Z,10.27
2018-06-11T10:15:42.203Z,10.10
2018-06-11T10:17:44.757Z,9.97
2018-06-11T10:19:47.312Z,10.60
2018-06-11T10:21:50.228Z,10.37
2018-06-11T10:23:52.777Z,9.47
2018-06-11T10:25:55.369Z,9.70
2018-06-11T10:27:58.087Z,10.50
2018-06-11T10:30:00.627Z,10.20
2018-06-11T10:32:03.276Z,9.60
2018-06-11T10:34:05.940Z,9.10
2018-06-11T10:36:08.484Z,9.80
2018-06-11T10:38:11.831Z,10.83
2018-06-11T10:40:14.473Z,10.00
2018-06-11T10:42:17.772Z,10.40
2018-06-11T10:44:20.318Z,10.50
2018-06-11T10:46:23.766Z,9.87
2018-06-11T10:48:26.312Z,9.50
2018-06-11T10:50:28.876Z,10.10
2018-06-11T10:52:31.481Z,10.30
2018-06-11T10:54:34.037Z,9.40
2018-06-11T10:56:36.585Z,10.07
2018-06-11T10:58:41.717Z,9.10
2018-06-11T11:00:46.176Z,9.90
2018-06-11T11:02:49.671Z,10.27
2018-06-11T11:04:52.632Z,9.90
2018-06-11T11:06:55.186Z,10.03
2018-06-11T11:08:58.633Z,9.60
2018-06-11T11:11:01.201Z,10.17
2018-06-11T11:13:03.948Z,10.27
2018-06-11T11:15:06.576Z,9.87
2018-06-11T11:17:09.561Z,9.97
2018-06-11T11:19:13.405Z,10.00
2018-06-11T11:21:16.082Z,10.97
2018-06-11T11:23:19.763Z,11.13
2018-06-11T11:25:22.471Z,10.77
2018-06-11T11:27:25.075Z,10.00
2018-06-11T11:29:35.050Z,11.40
2018-06-11T11:31:38.330Z,10.80
2018-06-11T11:33:40.882Z,10.80
2018-06-11T11:35:43.446Z,11.20
2018-06-11T11:37:45.995Z,10.67
2018-06-11T11:39:48.595Z,10.90
2018-06-11T11:41:51.303Z,11.30
2018-06-11T11:43:55.469Z,10.93
2018-06-11T11:45:58.297Z,11.30
2018-06-11T11:48:01.233Z,11.10
2018-06-11T11:50:03.969Z,11.07
2018-06-11T11:52:06.554Z,10.40
2018-06-11T11:54:10.155Z,10.80
2018-06-11T11:56:14.108Z,11.07
2018-06-11T11:58:17.548Z,10.97
2018-06-11T12:00:20.518Z,10.50
2018-06-11T12:55:27.745Z,11.20
2018-06-11T12:59:40.293Z,10.23
2018-06-11T13:01:46.209Z,11.20
2018-06-11T13:03:54.898Z,12.63
2018-06-11T13:06:02.179Z,11.37
2018-06-11T13:08:09.574Z,12.07
2018-06-11T13:10:14.063Z,10.00
2018-06-11T13:12:16.804Z,10.60
2018-06-11T13:14:19.424Z,11.33
2018-06-11T13:16:22.018Z,11.80
2018-06-11T13:18:24.569Z,11.70
2018-06-11T13:20:27.217Z,10.90
2018-06-11T13:22:29.845Z,11.57
2018-06-11T13:24:33.546Z,12.07
2018-06-11T13:26:36.129Z,11.23
2018-06-11T13:31:07.444Z,11.80
2018-06-11T13:35:33.264Z,12.30
2018-06-11T13:37:42.837Z,11.00
2018-06-11T13:39:58.099Z,10.90
2018-06-11T13:42:04.543Z,11.80
2018-06-11T13:44:07.477Z,10.90
2018-06-11T13:46:10.123Z,10.43
2018-06-11T13:48:12.725Z,11.40
2018-06-11T13:50:16.898Z,11.80
2018-06-11T13:52:19.393Z,11.30
2018-06-11T13:54:21.940Z,12.10
2018-06-11T13:56:24.511Z,12.53
2018-06-11T13:58:27.163Z,10.20
2018-06-11T14:00:29.709Z,10.73
2018-06-11T14:02:32.309Z,9.70
2018-06-11T14:04:34.841Z,10.33
2018-06-11T14:06:37.384Z,10.73
2018-06-11T14:08:39.953Z,9.93
2018-06-11T14:10:43.259Z,10.90
2018-06-11T14:12:45.816Z,11.03
2018-06-11T14:14:48.529Z,10.67
2018-06-11T14:16:51.243Z,9.55
2018-06-11T14:18:53.795Z,9.40
2018-06-11T14:20:56.357Z,10.60
2018-06-11T14:22:58.900Z,8.57
2018-06-11T14:25:01.461Z,8.43
2018-06-11T14:27:04.037Z,8.73
2018-06-11T14:29:06.587Z,8.00
2018-06-11T14:31:09.125Z,8.10
2018-06-11T14:33:11.688Z,7.07
2018-06-11T14:35:14.227Z,7.57
2018-06-11T14:37:16.770Z,7.40
2018-06-11T14:39:19.352Z,6.97
2018-06-11T14:41:22.668Z,7.07
2018-06-11T14:43:25.270Z,6.00
2018-06-11T14:45:27.953Z,6.53
2018-06-11T14:47:30.493Z,7.17
2018-06-11T14:49:33.049Z,8.00
2018-06-11T14:51:36.369Z,6.47
2018-06-11T14:53:38.908Z,7.03
2018-06-11T14:55:42.661Z,6.97
2018-06-11T14:57:45.205Z,7.23
2018-06-11T14:59:47.754Z,7.00
2018-06-11T15:01:51.073Z,7.03
2018-06-11T15:03:53.645Z,7.40
2018-06-11T15:05:56.184Z,6.90
2018-06-11T15:07:59.667Z,7.07
2018-06-11T15:10:02.189Z,6.97
2018-06-11T15:12:04.785Z,6.87
2018-06-11T15:14:07.361Z,6.50
2018-06-11T15:16:10.177Z,7.10
2018-06-11T15:18:12.808Z,6.97
2018-06-11T15:20:15.401Z,7.63
2018-06-11T15:22:17.929Z,6.90
2018-06-11T15:24:20.498Z,6.50
2018-06-11T15:26:23.144Z,6.03
2018-06-11T15:28:26.120Z,7.63
2018-06-11T15:30:28.666Z,6.60
2018-06-11T15:32:31.213Z,6.20
2018-06-11T15:34:33.774Z,6.30
2018-06-11T15:36:36.383Z,6.13
2018-06-11T15:38:38.936Z,7.50
2018-06-11T15:40:41.525Z,6.70
2018-06-11T15:42:44.077Z,7.03
2018-06-11T15:44:46.679Z,7.60
2018-06-11T15:46:49.308Z,7.00
2018-06-11T15:48:52.626Z,7.20
2018-06-11T15:50:55.357Z,7.70
2018-06-11T15:52:57.996Z,9.17
2018-06-11T15:55:00.556Z,8.40
2018-06-11T15:57:03.179Z,9.77
2018-06-11T15:59:05.758Z,8.30
2018-06-11T16:01:08.296Z,8.80
2018-06-11T16:03:10.961Z,9.40
2018-06-11T16:05:13.544Z,10.03
2018-06-11T16:07:16.091Z,9.77
2018-06-11T16:09:18.650Z,11.23
2018-06-11T16:11:21.220Z,11.10
2018-06-11T16:13:24.969Z,12.20
2018-06-11T16:15:27.576Z,13.20
2018-06-11T16:17:30.902Z,13.77
2018-06-11T16:19:33.461Z,13.17
2018-06-11T16:21:36.090Z,12.80
2018-06-11T16:23:38.661Z,14.83
2018-06-11T16:25:41.248Z,14.70
2018-06-11T16:27:43.931Z,13.53
2018-06-11T16:29:46.456Z,16.43
2018-06-11T16:31:49.144Z,15.70
2018-06-11T16:33:51.668Z,16.90
2018-06-11T16:35:55.025Z,16.40
2018-06-11T16:37:57.591Z,16.80
2018-06-11T16:40:00.142Z,16.07
2018-06-11T16:42:02.712Z,16.23
2018-06-11T16:44:05.264Z,15.17
2018-06-11T16:46:07.873Z,16.60
2018-06-11T16:48:10.418Z,16.10
2018-06-11T16:50:12.990Z,16.27
2018-06-11T16:52:15.553Z,15.47
2018-06-11T16:54:18.207Z,17.20
2018-06-11T16:56:20.749Z,17.20
2018-06-11T16:58:23.350Z,16.10
2018-06-11T17:00:25.991Z,16.47
2018-06-11T17:02:29.357Z,16.67
2018-06-11T17:04:31.920Z,17.10
2018-06-11T17:06:34.533Z,17.67
2018-06-11T17:08:37.078Z,15.90
2018-06-11T17:10:39.625Z,18.53
2018-06-11T17:12:42.988Z,19.10
2018-06-11T17:14:45.579Z,17.80
2018-06-11T17:16:48.113Z,15.80
2018-06-11T17:18:50.658Z,17.27
2018-06-11T17:20:53.203Z,18.87
2018-06-11T17:22:56.534Z,16.90
2018-06-11T17:24:59.097Z,17.30
2018-06-11T17:27:01.669Z,17.73
2018-06-11T17:29:04.211Z,16.87
2018-06-11T17:31:07.529Z,17.47
2018-06-11T17:33:10.145Z,16.50
2018-06-11T17:35:12.679Z,18.00
2018-06-11T17:37:15.247Z,17.83
2018-06-11T17:39:17.801Z,17.10
2018-06-11T17:41:21.141Z,17.93
2018-06-11T17:43:23.684Z,16.30
2018-06-11T17:45:26.275Z,19.30
2018-06-11T17:47:28.936Z,17.30
2018-06-11T17:49:31.485Z,16.50
2018-06-11T17:51:35.622Z,17.37
2018-06-11T17:53:38.117Z,17.97
2018-06-11T17:55:40.668Z,18.80
2018-06-11T17:57:43.247Z,17.93
2018-06-11T17:59:45.781Z,18.67
2018-06-11T18:01:49.386Z,19.37
2018-06-11T18:03:52.737Z,18.57
2018-06-11T18:05:55.301Z,17.80
2018-06-11T18:07:57.862Z,19.87
2018-06-11T18:10:00.408Z,17.97
2018-06-11T18:12:03.041Z,19.37
2018-06-11T18:14:05.594Z,18.83
2018-06-11T18:16:08.136Z,19.50
2018-06-11T18:18:10.709Z,21.50
2018-06-11T18:20:13.260Z,19.63
2018-06-11T18:22:16.644Z,20.40
2018-06-11T18:24:19.227Z,19.97
2018-06-11T18:26:21.812Z,20.10
2018-06-11T18:28:24.336Z,21.53
2018-06-11T18:30:26.996Z,19.37
2018-06-11T18:32:29.576Z,20.50
2018-06-11T18:34:33.165Z,20.10
2018-06-11T18:36:36.780Z,20.15
2018-06-11T18:38:39.371Z,19.37
2018-06-11T18:40:41.965Z,18.50
2018-06-11T18:42:45.313Z,20.10
2018-06-11T18:44:47.855Z,20.03
2018-06-11T18:46:50.420Z,18.73
2018-06-11T18:48:52.974Z,20.47
2018-06-11T18:50:56.293Z,19.53
2018-06-11T18:52:58.861Z,21.10
2018-06-11T18:55:01.466Z,19.20
2018-06-11T18:57:04.071Z,19.57
2018-06-11T18:59:06.631Z,20.00
2018-06-11T19:01:09.205Z,19.33
2018-06-11T19:03:11.839Z,20.20
2018-06-11T19:05:14.391Z,19.30
2018-06-11T19:07:17.697Z,19.33
2018-06-11T19:09:20.297Z,19.97
2018-06-11T19:11:23.000Z,19.83
2018-06-11T19:13:25.534Z,19.80
2018-06-11T19:15:28.101Z,19.53
2018-06-11T19:17:30.653Z,20.50
2018-06-11T19:19:34.108Z,20.10
2018-06-11T19:21:36.661Z,19.07
2018-06-11T19:23:39.244Z,19.17
2018-06-11T19:25:41.937Z,20.37
2018-06-11T19:27:45.305Z,18.90
2018-06-11T19:29:47.873Z,19.50
2018-06-11T19:31:50.414Z,19.77
2018-06-11T19:33:53.063Z,21.70
2018-06-11T19:35:55.609Z,18.60
2018-06-11T19:37:58.160Z,18.97
2018-06-11T19:40:00.720Z,20.30
2018-06-11T19:42:03.440Z,20.20
2018-06-11T19:44:06.788Z,19.20
2018-06-11T19:46:09.430Z,19.07
2018-06-11T19:48:12.858Z,21.23
2018-06-11T19:50:15.644Z,20.33
2018-06-11T19:52:18.533Z,19.27
2018-06-11T19:54:21.280Z,20.20
2018-06-11T19:56:24.104Z,19.07
2018-06-11T19:58:26.804Z,19.70
2018-06-11T20:00:29.598Z,19.10
2018-06-11T20:02:33.121Z,19.63
2018-06-11T20:04:36.020Z,18.80
2018-06-11T20:06:39.521Z,19.40
2018-06-11T20:08:42.498Z,20.67
2018-06-11T20:10:45.224Z,18.73
2018-06-11T20:12:48.925Z,19.10
2018-06-11T20:14:51.703Z,19.20
2018-06-11T20:16:54.249Z,18.73
2018-06-11T20:18:58.523Z,18.30
2018-06-11T20:21:01.323Z,18.30
2018-06-11T20:23:04.829Z,19.97
2018-06-11T20:25:07.400Z,19.07
2018-06-11T20:27:09.961Z,18.67
2018-06-11T20:29:12.512Z,20.47
2018-06-11T20:31:15.114Z,19.47
2018-06-11T20:33:17.707Z,19.43
2018-06-11T20:35:20.274Z,19.47
2018-06-11T20:37:22.928Z,19.23
2018-06-11T20:39:25.487Z,19.10
2018-06-11T20:41:28.075Z,17.90
2018-06-11T20:43:30.836Z,18.60
2018-06-11T20:45:33.409Z,18.47
2018-06-11T20:47:36.048Z,19.00
2018-06-11T20:49:38.646Z,18.60
2018-06-11T20:51:41.210Z,17.60
2018-06-11T20:53:45.040Z,18.33
2018-06-11T20:55:47.879Z,19.20
2018-06-11T20:57:50.511Z,18.50
2018-06-11T20:59:53.444Z,16.93
2018-06-11T21:01:56.487Z,17.80
2018-06-11T21:04:00.138Z,16.60
2018-06-11T21:06:03.329Z,17.73
2018-06-11T21:08:05.948Z,18.23
2018-06-11T21:10:09.068Z,17.17
2018-06-11T21:12:12.887Z,17.07
2018-06-11T21:14:16.470Z,17.57
2018-06-11T21:16:19.460Z,17.70
2018-06-11T21:18:22.840Z,17.57
2018-06-11T21:20:25.375Z,16.97
2018-06-11T21:22:27.928Z,17.77
2018-06-11T21:24:30.521Z,17.70
2018-06-11T21:26:33.108Z,18.60
2018-06-11T21:28:46.489Z,17.43
2018-06-11T21:37:11.503Z,16.93
2018-06-11T21:47:11.367Z,16.07
2018-06-11T21:57:11.431Z,14.43
2018-06-11T22:07:10.881Z,13.13
2018-06-11T22:17:13.016Z,11.40
2018-06-11T22:27:12.138Z,12.30
2018-06-11T22:37:12.622Z,10.97
2018-06-11T22:47:11.946Z,10.77
2018-06-11T22:57:12.138Z,10.57
2018-06-11T23:07:10.465Z,10.47
2018-06-11T23:17:11.761Z,10.40
2018-06-11T23:27:11.177Z,10.50
2018-06-11T23:37:14.966Z,9.90
2018-06-11T23:47:14.111Z,10.17
2018-06-11T23:57:13.769Z,8.50
